Time;durP1;ratioP1;P1;durP2;ratioP2;P2;SDS_P1;SDS_P2;PMS_P1;PMS_P2;Temp;Humidity;BMP_temperature;BMP_pressure;BME280_temperature;BME280_humidity;BME280_pressure;Samples;Min_cycle;Max_cycle;Signal;HPM_P1;HPM_P2
2022/03/24 00:22:37;;;;;;;;;;;;;;;3.64;67.14;100808.25;5546306;23;19933;-80
2022/03/24 00:25:03;;;;;;;;;;;;;;;3.65;67.24;100802.13;4974087;28;20566;-81
2022/03/24 00:27:28;;;;;;;;;;;;;;;3.68;67.49;100798.66;4996481;28;19914;-80
2022/03/24 00:29:54;;;;;;;;;;;;;;;3.67;67.47;100789.94;4978300;28;19976;-80
2022/03/24 00:32:19;;;;;;;;;;;;;;;3.67;67.82;100795.16;4996300;28;19965;-80
2022/03/24 00:34:45;;;;;;;;;;;;;;;3.68;67.75;100791.66;4996121;28;20040;-80
2022/03/24 00:37:10;;;;;;;;;;;;;;;3.67;67.84;100789.94;4995070;28;19918;-81
2022/03/24 00:39:36;;;;;;;;;;;;;;;3.71;68.02;100785.56;4996128;28;19918;-81
2022/03/24 00:42:02;;;;;;;;;;;;;;;3.70;68.06;100792.56;4996350;28;20288;-80
2022/03/24 00:44:28;;;;;;;;;;;;;;;3.73;68.05;100779.41;4995896;28;19918;-82
2022/03/24 00:46:54;;;;;;;;;;;;;;;3.73;68.08;100778.56;4996180;28;19975;-83
2022/03/24 00:49:20;;;;;;;;;;;;;;;3.76;68.21;100782.03;4977946;28;19918;-84
2022/03/24 00:51:46;;;;;;;;;;;;;;;3.84;68.58;100774.19;4976468;28;19922;-82
2022/03/24 00:54:11;;;;;;;;;;;;;;;4.08;70.75;100775.06;4995878;28;19917;-83
2022/03/24 00:56:36;;;;;;;;;;;;;;;4.41;76.98;100779.41;4977862;28;20297;-82
2022/03/24 00:59:02;;;;;;;;;;;;;;;4.48;80.94;100782.88;4995893;28;19922;-81
2022/03/24 01:01:27;;;;;;;;;;;;;;;4.47;83.48;100789.03;4995822;28;20455;-83
2022/03/24 01:03:53;;;;;;;;;;;;;;;4.43;85.25;100782.91;4995669;28;19925;-81
2022/03/24 01:06:18;;;;;;;;;;;;;;;4.37;86.65;100782.91;4994667;28;19917;-81
2022/03/24 01:08:44;;;;;;;;;;;;;;;4.29;87.60;100784.66;4995702;28;19921;-82
2022/03/24 01:11:10;;;;;;;;;;;;;;;4.22;88.42;100783.81;4995365;28;20373;-80
2022/03/24 01:13:36;;;;;;;;;;;;;;;4.10;89.09;100789.03;4995502;28;19944;-81
2022/03/24 01:16:03;;;;;;;;;;;;;;;3.96;89.65;100789.06;4995501;28;19924;-81
2022/03/24 01:18:29;;;;;;;;;;;;;;;3.79;90.62;100784.66;4995306;28;19925;-80
2022/03/24 01:20:54;;;;;;;;;;;;;;;3.67;91.55;100787.31;4995459;28;19921;-80
2022/03/24 01:23:23;;;;;;;;;;;;;;;3.69;92.58;100790.78;4998004;28;19921;-79
2022/03/24 01:25:48;;;;;;;;;;;;;;;3.70;93.63;100789.94;5005683;28;20119;-80
2022/03/24 09:00:12;;;;;;;;;;;;;;;2.24;80.91;100808.47;4992934;28;19932;-81
2022/03/24 09:02:38;;;;;;;;;;;;;;;2.23;81.09;100804.09;4993906;28;19930;-82
2022/03/24 09:05:05;;;;;;;;;;;;;;;2.25;81.65;100806.72;4994430;28;19922;-82
2022/03/24 09:07:30;;;;;;;;;;;;;;;2.29;81.89;100808.50;4977731;28;20364;-82
2022/03/24 09:09:56;;;;;;;;;;;;;;;2.26;82.02;100801.50;4978202;28;19928;-81
2022/03/24 09:12:21;;;;;;;;;;;;;;;2.30;82.13;100808.53;4970804;28;19922;-81
2022/03/24 09:14:46;;;;;;;;;;;;;;;2.31;82.15;100812.91;4995769;28;19940;-82
2022/03/24 09:17:11;;;;;;;;;;;;;;;2.32;82.14;100817.25;4977416;28;19921;-81
2022/03/24 09:19:37;;;;;;;;;;;;;;;2.33;81.91;100812.88;4978201;28;19973;-80
2022/03/24 09:22:04;;;;;;;;;;;;;;;2.33;81.86;100808.56;4995627;28;19928;-81
2022/03/24 09:24:30;;;;;;;;;;;;;;;2.35;81.87;100814.66;4995040;28;20037;-82
2022/03/24 09:26:55;;;;;;;;;;;;;;;2.36;81.68;100810.28;4976821;28;20329;-82
2022/03/24 09:29:22;;;;;;;;;;;;;;;2.38;81.30;100812.91;4977921;28;19922;-82
2022/03/24 09:31:47;;;;;;;;;;;;;;;2.38;81.14;100810.31;4977978;28;19918;-83
2022/03/24 09:34:13;;;;;;;;;;;;;;;2.40;80.96;100812.09;4977446;28;20005;-82
2022/03/24 09:36:39;;;;;;;;;;;;;;;2.40;80.87;100813.84;4995223;28;20353;-82
2022/03/24 09:39:05;;;;;;;;;;;;;;;2.41;80.62;100810.31;4977646;28;20331;-81
2022/03/24 09:41:31;;;;;;;;;;;;;;;2.42;80.46;100807.72;4977126;28;19980;-82
2022/03/24 09:43:57;;;;;;;;;;;;;;;2.48;80.51;100799.91;4976189;28;20292;-83
2022/03/24 09:46:24;;;;;;;;;;;;;;;2.48;80.43;100799.91;4975435;28;20373;-80
2022/03/24 09:48:50;;;;;;;;;;;;;;;2.45;80.12;100796.41;4977454;28;19918;-81
2022/03/24 09:51:15;;;;;;;;;;;;;;;2.48;80.07;100802.53;4974802;28;20029;-82
2022/03/24 09:53:41;;;;;;;;;;;;;;;2.50;79.96;100799.94;4993189;28;20273;-83
2022/03/24 09:56:06;;;;;;;;;;;;;;;2.47;79.96;100797.28;4992813;28;20264;-83
2022/03/24 09:58:32;;;;;;;;;;;;;;;2.50;80.09;100800.78;4995030;28;19921;-81
2022/03/24 10:00:57;;;;;;;;;;;;;;;2.57;79.86;100804.34;5003609;28;19997;-83
2022/03/24 10:03:22;;;;;;;;;;;;;;;2.56;79.75;100799.97;5003820;28;19933;-82
2022/03/24 10:05:58;;;;;;;;;;;;;;;2.56;80.11;100797.34;5001801;28;20436;-84
2022/03/24 10:08:23;;;;;;;;;;;;;;;2.54;80.06;100793.88;5008516;28;19955;-83
2022/03/24 10:10:48;;;;;;;;;;;;;;;2.59;80.17;100793.91;5018799;28;19977;-83
2022/03/24 10:13:22;;;;;;;;;;;;;;;2.61;80.38;100793.03;5008422;28;19925;-83
2022/03/24 10:15:47;;;;;;;;;;;;;;;2.61;80.26;100793.03;5004268;28;19921;-83
2022/03/24 10:18:16;;;;;;;;;;;;;;;2.63;80.02;100793.94;5000979;28;20143;-82
2022/03/24 10:20:41;;;;;;;;;;;;;;;2.62;79.98;100788.69;5004645;28;19918;-83
2022/03/24 10:23:07;;;;;;;;;;;;;;;2.66;79.55;100791.28;5003595;28;20475;-82
2022/03/24 10:25:33;;;;;;;;;;;;;;;2.63;79.24;100779.94;5003896;28;20033;-81
2022/03/24 10:28:02;;;;;;;;;;;;;;;2.65;79.05;100784.34;5002682;28;20024;-83
2022/03/24 10:30:27;;;;;;;;;;;;;;;2.67;78.94;100785.22;5004131;28;19976;-82
2022/03/24 10:32:56;;;;;;;;;;;;;;;2.65;78.91;100784.34;5003791;28;20016;-81
2022/03/24 10:35:22;;;;;;;;;;;;;;;2.68;78.63;100789.59;5003390;28;19922;-82
2022/03/24 10:37:50;;;;;;;;;;;;;;;2.66;78.57;100779.97;5002485;28;19926;-81
2022/03/24 10:40:15;;;;;;;;;;;;;;;2.67;78.52;100777.34;5002847;28;20003;-81
2022/03/24 10:42:41;;;;;;;;;;;;;;;2.70;78.50;100772.13;5002827;28;19969;-81
2022/03/24 10:45:12;;;;;;;;;;;;;;;2.70;78.03;100781.75;5002707;28;20472;-83
2022/03/24 10:47:38;;;;;;;;;;;;;;;2.71;78.10;100775.63;5003157;28;20048;-82
2022/03/24 10:50:22;;;;;;;;;;;;;;;2.73;78.52;100771.28;5002358;28;19917;-82
2022/03/24 10:52:48;;;;;;;;;;;;;;;2.78;78.44;100768.69;5002032;28;20024;-81
2022/03/24 10:55:19;;;;;;;;;;;;;;;2.75;78.23;100768.69;5018434;28;19917;-83
2022/03/24 10:57:46;;;;;;;;;;;;;;;2.77;78.27;100770.41;5001024;28;19924;-81
2022/03/24 11:00:12;;;;;;;;;;;;;;;2.77;78.08;100761.69;5002047;28;19948;-82
2022/03/24 11:02:37;;;;;;;;;;;;;;;2.82;78.48;100767.81;4985544;28;20280;-82
2022/03/24 11:05:12;;;;;;;;;;;;;;;2.86;78.46;100767.84;5001865;28;19964;-82
2022/03/24 11:07:38;;;;;;;;;;;;;;;2.83;78.39;100766.97;5001529;28;19921;-81
2022/03/24 11:10:13;;;;;;;;;;;;;;;2.86;78.61;100753.91;5002486;28;20383;-81
2022/03/24 11:12:39;;;;;;;;;;;;;;;2.91;78.61;100754.78;5000450;28;20334;-81
2022/03/24 11:15:06;;;;;;;;;;;;;;;2.93;78.56;100753.03;5002115;28;20401;-83
2022/03/24 11:17:32;;;;;;;;;;;;;;;2.94;78.20;100754.78;5002469;28;19980;-83
2022/03/24 11:20:08;;;;;;;;;;;;;;;2.96;78.01;100746.94;4984103;28;19922;-82
2022/03/24 11:22:36;;;;;;;;;;;;;;;2.95;77.64;100746.06;5003684;28;19918;-83
2022/03/24 11:25:03;;;;;;;;;;;;;;;3.01;77.79;100745.22;5001969;28;19980;-83
2022/03/24 11:27:29;;;;;;;;;;;;;;;2.98;77.85;100740.81;4998631;28;19980;-82
2022/03/24 11:29:54;;;;;;;;;;;;;;;3.00;77.85;100744.34;5001839;28;20344;-81
2022/03/24 11:32:19;;;;;;;;;;;;;;;3.00;77.84;100739.13;5001927;28;19968;-80
2022/03/24 11:34:45;;;;;;;;;;;;;;;3.02;77.69;100739.97;5002050;28;19918;-82
2022/03/24 11:37:10;;;;;;;;;;;;;;;3.06;77.48;100733.00;4990997;28;20480;-82
2022/03/24 11:39:35;;;;;;;;;;;;;;;3.05;77.29;100737.38;4992494;28;19917;-82
2022/03/24 11:42:01;;;;;;;;;;;;;;;3.08;77.00;100731.28;5001300;28;19921;-82
2022/03/24 11:44:36;;;;;;;;;;;;;;;3.14;76.77;100730.41;4990391;28;20004;-83
2022/03/24 11:47:11;;;;;;;;;;;;;;;3.14;76.09;100725.16;4990229;28;19917;-81
2022/03/24 11:49:36;;;;;;;;;;;;;;;3.14;75.88;100723.41;5001566;28;19918;-81
2022/03/24 11:52:02;;;;;;;;;;;;;;;3.16;75.46;100711.22;5001665;28;19922;-83
2022/03/24 11:54:39;;;;;;;;;;;;;;;3.15;75.09;100705.97;5000616;28;19954;-82
2022/03/24 11:57:23;;;;;;;;;;;;;;;3.14;74.75;100706.84;5000552;28;20347;-81
2022/03/24 11:59:49;;;;;;;;;;;;;;;3.16;75.07;100706.00;4990335;28;19921;-82
2022/03/24 12:02:18;;;;;;;;;;;;;;;3.17;74.85;100694.63;4990045;28;20024;-82
2022/03/24 12:04:47;;;;;;;;;;;;;;;3.17;75.12;100696.38;4984732;28;19924;-84
2022/03/24 12:07:18;;;;;;;;;;;;;;;3.17;74.93;100694.63;4999441;28;19918;-82
2022/03/24 12:09:57;;;;;;;;;;;;;;;3.17;75.22;100683.28;4984150;28;19922;-82
2022/03/24 12:12:22;;;;;;;;;;;;;;;3.21;75.39;100688.53;4982572;28;20012;-83
2022/03/24 12:14:48;;;;;;;;;;;;;;;3.23;75.51;100684.16;5000995;28;20009;-81
2022/03/24 12:17:22;;;;;;;;;;;;;;;3.28;75.68;100678.94;4983987;28;20484;-81
2022/03/24 12:19:53;;;;;;;;;;;;;;;3.28;75.44;100676.31;5000956;28;20000;-83
2022/03/24 12:22:35;;;;;;;;;;;;;;;3.25;75.17;100671.06;5005452;28;20258;-81
2022/03/24 12:25:01;;;;;;;;;;;;;;;3.27;75.31;100664.97;5006691;28;19940;-81
2022/03/24 12:27:26;;;;;;;;;;;;;;;3.28;75.41;100671.94;5005966;28;20392;-81
2022/03/24 12:30:11;;;;;;;;;;;;;;;3.36;75.30;100671.06;5006761;28;19917;-82
2022/03/24 12:32:37;;;;;;;;;;;;;;;3.34;74.93;100665.84;4991769;28;20020;-81
2022/03/24 12:35:03;;;;;;;;;;;;;;;3.35;74.48;100670.22;5006051;28;20005;-81
2022/03/24 12:37:32;;;;;;;;;;;;;;;3.35;74.38;100661.47;4994997;28;19913;-81
2022/03/24 12:40:04;;;;;;;;;;;;;;;3.35;74.21;100662.34;4997365;28;20373;-83
2022/03/24 12:42:38;;;;;;;;;;;;;;;3.37;73.93;100655.38;5004193;28;20008;-82
2022/03/24 12:45:04;;;;;;;;;;;;;;;3.39;73.99;100656.22;5007370;28;20008;-83
2022/03/24 12:47:30;;;;;;;;;;;;;;;3.40;73.52;100652.75;5007500;28;20024;-82
2022/03/24 12:49:56;;;;;;;;;;;;;;;3.44;73.61;100648.38;5008020;28;20525;-82
2022/03/24 12:52:26;;;;;;;;;;;;;;;3.69;75.61;100653.63;4994122;28;20373;-82
2022/03/24 12:54:53;;;;;;;;;;;;;;;3.86;78.29;100648.34;5005750;28;20188;-82
2022/03/24 12:57:21;;;;;;;;;;;;;;;3.90;80.19;100650.09;4989926;28;19921;-82
2022/03/24 12:59:46;;;;;;;;;;;;;;;3.90;82.34;100639.59;4995104;28;20365;-83
2022/03/24 13:02:12;;;;;;;;;;;;;;;3.87;84.02;100645.72;5006818;28;19922;-83
2022/03/24 13:04:37;;;;;;;;;;;;;;;3.86;85.10;100637.84;4992646;28;19918;-81
2022/03/24 13:07:03;;;;;;;;;;;;;;;3.75;86.64;100628.25;5006422;28;19953;-83
2022/03/24 13:09:28;;;;;;;;;;;;;;;3.69;87.62;100627.41;4997577;28;20288;-81
2022/03/24 13:12:02;;;;;;;;;;;;;;;3.56;88.60;100624.78;4990458;28;19922;-81
2022/03/24 13:14:29;;;;;;;;;;;;;;;3.47;89.78;100629.16;4996259;28;20020;-82
2022/03/24 13:17:02;;;;;;;;;;;;;;;3.43;91.33;100620.41;5007250;28;19928;-82
2022/03/24 13:19:28;;;;;;;;;;;;;;;3.50;92.99;100622.16;5006424;28;20004;-83
2022/03/24 13:21:54;;;;;;;;;;;;;;;3.62;95.83;100611.69;5007984;28;20296;-81
2022/03/24 13:24:20;;;;;;;;;;;;;;;3.91;99.37;100616.00;5007836;28;19918;-83
2022/03/24 13:26:56;;;;;;;;;;;;;;;4.16;100.00;100608.03;5006562;28;19917;-81
2022/03/24 13:29:21;;;;;;;;;;;;;;;4.27;100.00;100598.38;5006941;28;19921;-82
2022/03/24 13:31:46;;;;;;;;;;;;;;;4.39;100.00;100605.34;5006748;28;20369;-82
2022/03/24 13:34:13;;;;;;;;;;;;;;;4.43;100.00;100599.19;4987182;28;19975;-82
2022/03/24 13:36:39;;;;;;;;;;;;;;;4.52;100.00;100599.16;5003396;28;20361;-83
2022/03/24 13:39:04;;;;;;;;;;;;;;;4.60;100.00;100590.38;5004274;28;19928;-82
2022/03/24 13:41:30;;;;;;;;;;;;;;;4.65;100.00;100589.44;5003299;28;20447;-82
2022/03/24 13:43:55;;;;;;;;;;;;;;;4.71;100.00;100588.56;5003940;28;19953;-82
2022/03/24 13:46:21;;;;;;;;;;;;;;;4.72;100.00;100585.94;5003651;28;19972;-82
2022/03/24 13:48:50;;;;;;;;;;;;;;;4.77;100.00;100587.63;5003270;28;19925;-83
2022/03/24 13:51:19;;;;;;;;;;;;;;;4.79;100.00;100583.25;5002794;28;19922;-83
2022/03/24 13:53:44;;;;;;;;;;;;;;;4.83;100.00;100580.59;4989191;28;19917;-82
2022/03/24 13:56:10;;;;;;;;;;;;;;;4.87;100.00;100579.69;4987054;28;19976;-84
2022/03/24 13:58:37;;;;;;;;;;;;;;;4.93;100.00;100576.16;5007115;28;19928;-83
2022/03/24 14:01:10;;;;;;;;;;;;;;;4.96;100.00;100572.63;5004825;28;19968;-83
2022/03/24 14:03:40;;;;;;;;;;;;;;;4.99;100.00;100573.47;5024113;28;20347;-83
2022/03/24 14:06:09;;;;;;;;;;;;;;;5.01;100.00;100566.47;5022752;28;19917;-83
2022/03/24 14:08:42;;;;;;;;;;;;;;;5.06;100.00;100558.56;5012652;28;20351;-83
2022/03/24 14:11:09;;;;;;;;;;;;;;;5.08;100.00;100556.78;5017982;28;19922;-83
2022/03/24 14:13:35;;;;;;;;;;;;;;;5.11;100.00;100553.28;5011948;28;20024;-83
2022/03/24 14:16:13;;;;;;;;;;;;;;;5.13;100.00;100549.72;5013382;28;19917;-83
2022/03/24 14:18:38;;;;;;;;;;;;;;;5.14;100.00;100546.22;5013286;28;20361;-83
2022/03/24 14:21:04;;;;;;;;;;;;;;;5.18;100.00;100542.66;5002937;28;20028;-81
2022/03/24 14:23:34;;;;;;;;;;;;;;;5.20;100.00;100538.28;5003811;28;19920;-81
2022/03/24 14:26:01;;;;;;;;;;;;;;;5.18;100.00;100531.28;5004049;28;19924;-83
2022/03/24 14:28:41;;;;;;;;;;;;;;;4.82;100.00;100531.59;5002219;28;19920;-83
2022/03/24 14:31:26;;;;;;;;;;;;;;;3.90;100.00;100529.47;5012869;28;19983;-82
2022/03/24 14:33:59;;;;;;;;;;;;;;;3.68;100.00;100526.03;5005890;28;19917;-82
2022/03/24 14:36:25;;;;;;;;;;;;;;;3.51;100.00;100533.94;5027645;28;20375;-83
2022/03/24 14:39:09;;;;;;;;;;;;;;;3.40;100.00;100529.59;5004748;28;20308;-82
2022/03/24 14:41:36;;;;;;;;;;;;;;;3.35;100.00;100526.13;5003668;28;19926;-82
2022/03/24 14:44:04;;;;;;;;;;;;;;;3.32;100.00;100522.63;5001520;28;20335;-83
2022/03/24 14:46:30;;;;;;;;;;;;;;;3.25;100.00;100527.00;5020252;28;19980;-83
2022/03/24 14:48:55;;;;;;;;;;;;;;;3.28;100.00;100519.13;5003900;28;19917;-81
2022/03/24 14:51:21;;;;;;;;;;;;;;;3.19;99.41;100513.91;5022525;28;19918;-82
2022/03/24 14:53:46;;;;;;;;;;;;;;;3.15;98.87;100510.41;5004068;28;19918;-82
2022/03/24 14:56:12;;;;;;;;;;;;;;;3.17;98.25;100510.41;5023167;28;19949;-81
2022/03/24 14:58:38;;;;;;;;;;;;;;;3.07;97.70;100510.41;5004048;28;20320;-82
2022/03/24 15:01:04;;;;;;;;;;;;;;;3.03;97.30;100507.81;5022722;28;19921;-82
2022/03/24 15:03:29;;;;;;;;;;;;;;;3.00;96.94;100507.81;5004664;28;19924;-83
2022/03/24 15:05:54;;;;;;;;;;;;;;;2.95;96.70;100510.41;5005718;28;19925;-82
2022/03/24 15:08:20;;;;;;;;;;;;;;;2.96;96.19;100506.94;5004821;28;20233;-82
2022/03/24 15:10:46;;;;;;;;;;;;;;;2.96;95.92;100512.19;5021926;28;19964;-81
2022/03/24 15:13:11;;;;;;;;;;;;;;;2.95;95.15;100505.19;5020021;28;19917;-82
2022/03/24 15:18:21;;;;;;;;;;;;;;;2.88;94.11;100506.94;5019702;28;19940;-81
2022/03/24 15:20:46;;;;;;;;;;;;;;;2.89;93.78;100497.34;5022337;28;20369;-81
2022/03/24 15:23:11;;;;;;;;;;;;;;;2.90;93.06;100494.75;5005358;28;20303;-81
2022/03/24 15:25:36;;;;;;;;;;;;;;;2.85;92.45;100495.59;5005003;28;19921;-81
2022/03/24 15:28:02;;;;;;;;;;;;;;;2.77;92.36;100492.13;5003573;28;19924;-81
2022/03/24 15:30:27;;;;;;;;;;;;;;;2.76;92.16;100488.63;5004188;28;19921;-84
2022/03/24 15:32:53;;;;;;;;;;;;;;;2.78;91.80;100493.88;5004994;28;19925;-83
2022/03/24 15:35:18;;;;;;;;;;;;;;;2.76;91.34;100493.88;5022730;28;20438;-82
2022/03/24 15:37:43;;;;;;;;;;;;;;;2.68;91.36;100491.25;5025631;28;19924;-82
2022/03/24 15:40:09;;;;;;;;;;;;;;;2.70;91.50;100489.50;5003943;28;20395;-83
2022/03/24 15:42:35;;;;;;;;;;;;;;;2.67;91.45;100489.47;5002221;28;20051;-82
2022/03/24 15:45:00;;;;;;;;;;;;;;;2.69;91.42;100492.97;5016039;28;19917;-81
2022/03/24 15:47:26;;;;;;;;;;;;;;;2.65;91.19;100491.22;5004340;28;19924;-82
2022/03/24 15:49:51;;;;;;;;;;;;;;;2.63;91.13;100495.59;5014612;28;20365;-83
2022/03/24 15:52:16;;;;;;;;;;;;;;;2.66;90.78;100495.56;5003015;28;19964;-81
2022/03/24 15:54:41;;;;;;;;;;;;;;;2.72;90.36;100490.34;5002546;28;19928;-81
2022/03/24 15:57:07;;;;;;;;;;;;;;;2.62;89.94;100491.22;5013989;28;20321;-82
2022/03/24 15:59:32;;;;;;;;;;;;;;;2.65;89.78;100490.34;5000600;28;19929;-81
2022/03/24 16:01:57;;;;;;;;;;;;;;;2.62;89.57;100491.22;5014571;28;19918;-82
2022/03/24 16:04:24;;;;;;;;;;;;;;;2.57;89.68;100484.22;5002150;28;20000;-81
2022/03/24 16:06:49;;;;;;;;;;;;;;;2.67;89.46;100492.09;5002287;28;20468;-83
2022/03/24 16:09:14;;;;;;;;;;;;;;;2.60;89.18;100482.53;5013827;28;19913;-83
2022/03/24 16:11:40;;;;;;;;;;;;;;;2.60;88.82;100490.38;5003266;28;19948;-81
2022/03/24 16:14:05;;;;;;;;;;;;;;;2.55;88.63;100499.94;5020886;28;19924;-81
2022/03/24 16:16:30;;;;;;;;;;;;;;;2.54;88.60;100496.44;5022382;28;19952;-83
2022/03/24 16:18:57;;;;;;;;;;;;;;;2.58;88.20;100491.22;5021771;28;20387;-81
2022/03/24 16:21:22;;;;;;;;;;;;;;;2.59;87.85;100486.00;5021849;28;20329;-81
2022/03/24 16:23:48;;;;;;;;;;;;;;;2.58;87.58;100488.59;5021784;28;19979;-81
2022/03/24 16:26:13;;;;;;;;;;;;;;;2.54;87.19;100487.75;5016005;28;20399;-81
2022/03/24 16:28:38;;;;;;;;;;;;;;;2.50;87.06;100493.81;5010304;28;19917;-82
2022/03/24 16:31:04;;;;;;;;;;;;;;;2.48;86.77;100498.19;5010568;28;19930;-81
2022/03/24 16:33:29;;;;;;;;;;;;;;;2.50;86.54;100497.31;4992316;28;19918;-82
2022/03/24 16:35:57;;;;;;;;;;;;;;;2.49;86.21;100503.44;5010702;28;19993;-83
2022/03/24 16:38:22;;;;;;;;;;;;;;;2.43;86.00;100495.56;4998463;28;20012;-82
2022/03/24 16:40:48;;;;;;;;;;;;;;;2.45;85.88;100500.81;5014820;28;20008;-83
2022/03/24 16:43:13;;;;;;;;;;;;;;;2.40;85.89;100499.94;5020796;28;20277;-82
2022/03/24 16:45:39;;;;;;;;;;;;;;;2.40;85.70;100495.56;5013662;28;19918;-82
2022/03/24 16:48:04;;;;;;;;;;;;;;;2.43;85.58;100497.31;5011101;28;19921;-83
2022/03/24 16:50:30;;;;;;;;;;;;;;;2.39;85.62;100492.94;5011126;28;19921;-82
2022/03/24 16:52:57;;;;;;;;;;;;;;;2.36;85.67;100497.31;5010952;28;19921;-82
2022/03/24 16:55:23;;;;;;;;;;;;;;;2.41;85.51;100504.28;5009583;28;20393;-83
2022/03/24 16:57:48;;;;;;;;;;;;;;;2.40;85.38;100506.03;5016578;28;19924;-84
2022/03/24 17:00:14;;;;;;;;;;;;;;;2.40;85.20;100507.78;5020465;28;19928;-83
2022/03/24 17:02:39;;;;;;;;;;;;;;;2.45;84.98;100513.88;5019798;28;20003;-82
2022/03/24 17:05:05;;;;;;;;;;;;;;;2.39;84.47;100509.50;5019262;28;19927;-82
2022/03/24 17:07:31;;;;;;;;;;;;;;;2.35;84.40;100508.63;5021627;28;19971;-83
2022/03/24 17:09:57;;;;;;;;;;;;;;;2.28;84.75;100512.09;5023621;28;19922;-82
2022/03/24 17:12:22;;;;;;;;;;;;;;;2.30;84.53;100505.13;5020927;28;20436;-82
2022/03/24 17:14:48;;;;;;;;;;;;;;;2.34;84.74;100512.09;5023643;28;19928;-83
2022/03/24 17:17:13;;;;;;;;;;;;;;;2.30;84.63;100512.13;5007091;28;19917;-82
2022/03/24 17:19:39;;;;;;;;;;;;;;;2.31;84.53;100514.72;5007107;28;19924;-83
2022/03/24 17:22:04;;;;;;;;;;;;;;;2.32;84.14;100524.31;5024663;28;19972;-83
2022/03/24 17:24:29;;;;;;;;;;;;;;;2.35;84.17;100523.47;5024922;28;20012;-83
2022/03/24 17:26:57;;;;;;;;;;;;;;;2.30;83.92;100523.44;5006177;28;19922;-82
2022/03/24 17:29:23;;;;;;;;;;;;;;;2.28;83.84;100521.69;5024770;28;19949;-82
2022/03/24 17:31:49;;;;;;;;;;;;;;;2.26;83.74;100524.28;5024493;28;19968;-83
2022/03/24 17:34:14;;;;;;;;;;;;;;;2.25;83.54;100530.41;5005462;28;20017;-83
2022/03/24 17:36:39;;;;;;;;;;;;;;;2.25;83.76;100527.78;5023351;28;20386;-83
2022/03/24 17:39:05;;;;;;;;;;;;;;;2.21;83.71;100528.63;5006766;28;20324;-83
2022/03/24 17:41:31;;;;;;;;;;;;;;;2.25;83.52;100538.25;5023307;28;19924;-83
2022/03/24 17:43:56;;;;;;;;;;;;;;;2.31;83.37;100534.75;5004549;28;20036;-82
2022/03/24 17:46:21;;;;;;;;;;;;;;;2.29;83.19;100537.38;5004889;28;19961;-83
2022/03/24 17:48:47;;;;;;;;;;;;;;;2.22;83.10;100540.84;4997938;28;19928;-82
2022/03/24 17:51:12;;;;;;;;;;;;;;;2.24;82.93;100539.09;5004639;28;19991;-82
2022/03/24 17:53:37;;;;;;;;;;;;;;;2.28;83.04;100546.09;5013110;28;20875;-82
2022/03/24 17:56:03;;;;;;;;;;;;;;;2.26;82.79;100544.34;5014534;28;20096;-82
2022/03/24 17:58:28;;;;;;;;;;;;;;;2.26;82.80;100539.97;5012501;28;19932;-82
2022/03/24 18:00:53;;;;;;;;;;;;;;;2.24;82.55;100544.34;5011535;28;19929;-83
2022/03/24 18:03:19;;;;;;;;;;;;;;;2.24;82.56;100541.72;4995399;28;20356;-82
2022/03/24 18:05:44;;;;;;;;;;;;;;;2.20;82.45;100544.31;4995803;28;19928;-83
2022/03/24 18:08:09;;;;;;;;;;;;;;;2.20;82.52;100547.78;5011813;28;20697;-83
2022/03/24 18:10:35;;;;;;;;;;;;;;;2.24;82.28;100553.94;5003148;28;19925;-83
2022/03/24 18:13:01;;;;;;;;;;;;;;;2.24;82.50;100553.94;5002290;28;19918;-83
2022/03/24 18:15:26;;;;;;;;;;;;;;;2.24;82.63;100557.41;5002404;28;19918;-83
2022/03/24 18:17:51;;;;;;;;;;;;;;;2.21;82.61;100557.41;4986021;28;20291;-81
2022/03/24 18:20:17;;;;;;;;;;;;;;;2.23;82.70;100557.41;4985130;28;19921;-82
2022/03/24 18:22:43;;;;;;;;;;;;;;;2.25;82.87;100564.41;4991276;28;19917;-81
2022/03/24 18:25:08;;;;;;;;;;;;;;;2.27;82.82;100561.78;5002770;28;19921;-82
2022/03/24 18:27:34;;;;;;;;;;;;;;;2.28;82.60;100567.03;4993736;28;19975;-82
2022/03/24 18:29:59;;;;;;;;;;;;;;;2.26;82.75;100566.13;4994966;28;20482;-82
2022/03/24 18:32:25;;;;;;;;;;;;;;;2.27;82.77;100570.50;4999098;28;19947;-82
2022/03/24 18:34:50;;;;;;;;;;;;;;;2.26;82.68;100568.75;5000643;28;20369;-81
2022/03/24 18:37:16;;;;;;;;;;;;;;;2.28;82.68;100573.97;5004124;28;19972;-82
2022/03/24 18:39:41;;;;;;;;;;;;;;;2.28;82.61;100573.97;5015989;28;20347;-82
2022/03/24 18:42:07;;;;;;;;;;;;;;;2.31;82.66;100574.88;5000920;28;20259;-82
2022/03/24 18:44:32;;;;;;;;;;;;;;;2.30;82.69;100578.38;4985989;28;19921;-82
2022/03/24 18:46:57;;;;;;;;;;;;;;;2.30;82.49;100583.59;5009198;28;20300;-81
2022/03/24 18:49:23;;;;;;;;;;;;;;;2.30;82.29;100580.13;4994958;28;19921;-82
2022/03/24 18:51:50;;;;;;;;;;;;;;;2.31;82.24;100580.13;4994703;28;20008;-82
2022/03/24 18:54:15;;;;;;;;;;;;;;;2.28;82.09;100577.50;4995231;28;19921;-82
2022/03/24 18:56:41;;;;;;;;;;;;;;;2.29;82.13;100576.59;5007264;28;19918;-81
2022/03/24 18:59:06;;;;;;;;;;;;;;;2.29;81.93;100574.00;5005435;28;19922;-82
2022/03/24 19:01:31;;;;;;;;;;;;;;;2.29;81.88;100581.84;5003801;28;19918;-81
2022/03/24 19:03:57;;;;;;;;;;;;;;;2.31;81.95;100584.47;5003296;28;20013;-82
2022/03/24 19:06:22;;;;;;;;;;;;;;;2.32;81.74;100576.63;5003334;28;20265;-82
2022/03/24 19:08:47;;;;;;;;;;;;;;;2.31;81.52;100580.13;5001612;28;20004;-82
2022/03/24 19:11:13;;;;;;;;;;;;;;;2.35;81.24;100581.84;5001763;28;20415;-82
2022/03/24 19:13:39;;;;;;;;;;;;;;;2.34;81.15;100580.09;5000113;28;19918;-81
2022/03/24 19:16:05;;;;;;;;;;;;;;;2.35;80.88;100579.25;5001765;28;19926;-81
2022/03/24 19:18:31;;;;;;;;;;;;;;;2.36;80.88;100582.72;5001851;28;19972;-82
2022/03/24 19:20:57;;;;;;;;;;;;;;;2.43;80.91;100581.03;5001187;28;19921;-82
2022/03/24 19:23:23;;;;;;;;;;;;;;;2.36;80.72;100586.22;5010637;28;20332;-82
2022/03/24 19:25:48;;;;;;;;;;;;;;;2.39;80.54;100579.25;5001016;28;20381;-82
2022/03/24 19:28:19;;;;;;;;;;;;;;;2.37;80.51;100579.25;5009593;28;19977;-82
2022/03/24 19:30:45;;;;;;;;;;;;;;;2.40;80.31;100583.63;5000079;28;19969;-82
2022/03/24 19:33:10;;;;;;;;;;;;;;;2.43;80.11;100583.66;5000735;28;19953;-82
2022/03/24 19:35:35;;;;;;;;;;;;;;;2.42;80.07;100587.13;5001258;28;19928;-81
2022/03/24 19:38:04;;;;;;;;;;;;;;;2.42;79.63;100593.22;5010893;28;19917;-81
2022/03/24 19:40:30;;;;;;;;;;;;;;;2.44;79.66;100588.00;5001232;28;19917;-81
2022/03/24 19:42:57;;;;;;;;;;;;;;;2.43;79.72;100589.75;4999510;28;19929;-81
2022/03/24 19:45:27;;;;;;;;;;;;;;;2.46;79.54;100586.28;5000625;28;20412;-81
2022/03/24 19:47:53;;;;;;;;;;;;;;;2.50;79.39;100595.84;5000683;28;19917;-82
2022/03/24 19:50:18;;;;;;;;;;;;;;;2.53;79.39;100590.63;5000761;28;19924;-82
2022/03/24 19:52:43;;;;;;;;;;;;;;;2.51;79.29;100589.78;5000566;28;20312;-82
2022/03/24 19:55:09;;;;;;;;;;;;;;;2.53;79.29;100598.47;5000416;28;20047;-81
2022/03/24 19:57:38;;;;;;;;;;;;;;;2.55;79.30;100601.97;4999648;28;19921;-82
2022/03/24 20:00:05;;;;;;;;;;;;;;;2.53;79.26;100595.88;5000396;28;19948;-82
2022/03/24 20:02:30;;;;;;;;;;;;;;;2.53;79.25;100601.09;4992848;28;19921;-82
2022/03/24 20:04:55;;;;;;;;;;;;;;;2.55;79.20;100604.59;5010825;28;19918;-82
2022/03/24 20:07:21;;;;;;;;;;;;;;;2.56;79.37;100611.59;5000076;28;20405;-82
2022/03/24 20:09:47;;;;;;;;;;;;;;;2.53;79.46;100611.56;5000687;28;20360;-82
2022/03/24 20:12:12;;;;;;;;;;;;;;;2.57;79.46;100612.44;5009264;28;20372;-82
2022/03/24 20:14:37;;;;;;;;;;;;;;;2.58;79.36;100615.06;5010537;28;19924;-81
2022/03/24 20:17:03;;;;;;;;;;;;;;;2.60;79.60;100622.91;5010130;28;19924;-81
2022/03/24 20:19:29;;;;;;;;;;;;;;;2.61;79.53;100619.44;5010511;28;20403;-82
2022/03/24 20:21:54;;;;;;;;;;;;;;;2.60;79.57;100618.59;5009967;28;19921;-81
2022/03/24 20:24:19;;;;;;;;;;;;;;;2.63;79.47;100622.94;5000708;28;20013;-82
2022/03/24 20:26:45;;;;;;;;;;;;;;;2.64;79.15;100630.78;5010291;28;19919;-82
2022/03/24 20:29:10;;;;;;;;;;;;;;;2.61;79.08;100630.78;5009575;28;20321;-82
2022/03/24 20:31:36;;;;;;;;;;;;;;;2.65;78.81;100629.03;5010435;28;19943;-81
2022/03/24 20:34:03;;;;;;;;;;;;;;;2.64;78.54;100628.16;5010085;28;19918;-82
2022/03/24 20:36:28;;;;;;;;;;;;;;;2.61;78.07;100635.16;5009309;28;19971;-83
2022/03/24 20:38:54;;;;;;;;;;;;;;;2.64;77.79;100635.16;5010449;28;19921;-82